Stantonsburg, North Carolina
Current Conditions -  °F | °C
As of 3:15 PM on Thursday 23 Oct 2014 (Local Time) from KGWW Reporting Station
Clear Clear  
Wind Chill: 67°   Ceiling: Unl
Heat Index: 67°   Visibility: 10mi
Dew Point: 46°   Wind: 12mph
Humidity: 46%   Direction: 280°W
Pressure: 29.91"   Gusts: 16mph
Location:  35.61°N, 77.82°W
Report Text: KGWW 231915Z AUTO 28010G14KT 260V320 10SM CLR 20/08 A2991 RMK AO2 T01970078
Loading
Personal Weather Stations






























Interactive Weather Map
Tropical Storm Tracking
New forecast layout! Learn more

10-Day Weather Forecast

Advertisements
Track Severe Weather on mobile